createdAt,value
2023-03-11T00:00:31.595Z,2.13
2023-03-11T00:03:35.008Z,2.58
2023-03-11T00:06:38.305Z,1.85
2023-03-11T00:09:41.898Z,2.28
2023-03-11T00:12:45.123Z,2.17
2023-03-11T00:15:50.565Z,2.30
2023-03-11T00:18:54.052Z,2.22
2023-03-11T00:21:57.954Z,2.63
2023-03-11T00:25:01.483Z,2.85
2023-03-11T00:28:05.423Z,1.92
2023-03-11T00:31:10.378Z,2.65
2023-03-11T00:34:13.671Z,2.83
2023-03-11T00:37:16.968Z,2.83
2023-03-11T00:40:21.537Z,2.58
2023-03-11T00:43:24.879Z,2.65
2023-03-11T00:46:30.990Z,2.70
2023-03-11T00:49:34.506Z,2.80
2023-03-11T00:52:38.784Z,2.47
2023-03-11T00:55:42.176Z,2.38
2023-03-11T00:58:48.391Z,2.13
2023-03-11T01:01:53.268Z,1.88
2023-03-11T01:04:58.466Z,2.83
2023-03-11T01:08:01.992Z,2.17
2023-03-11T01:11:05.609Z,2.95
2023-03-11T01:14:08.994Z,2.95
2023-03-11T01:17:13.685Z,3.08
2023-03-11T01:20:18.855Z,3.05
2023-03-11T01:23:22.517Z,2.70
2023-03-11T01:26:25.764Z,2.60
2023-03-11T01:29:32.405Z,2.40
2023-03-11T01:32:37.196Z,2.90
2023-03-11T01:35:42.111Z,2.00
2023-03-11T01:38:45.482Z,2.42
2023-03-11T01:41:48.803Z,3.35
2023-03-11T01:44:52.508Z,2.72
2023-03-11T01:47:57.171Z,2.85
2023-03-11T01:51:00.548Z,3.13
2023-03-11T01:54:05.773Z,2.83
2023-03-11T01:57:11.321Z,2.78
2023-03-11T02:00:16.595Z,3.58
2023-03-11T02:03:24.416Z,3.25
2023-03-11T02:06:28.253Z,3.88
2023-03-11T02:09:32.090Z,3.03
2023-03-11T02:12:36.540Z,3.45
2023-03-11T02:15:40.633Z,3.90
2023-03-11T02:18:45.824Z,3.30
2023-03-11T02:21:49.681Z,4.22
2023-03-11T02:24:57.526Z,3.33
2023-03-11T02:28:02.918Z,3.42
2023-03-11T02:31:07.539Z,3.42
2023-03-11T02:34:17.521Z,3.55
2023-03-11T02:37:20.839Z,3.80
2023-03-11T02:40:39.713Z,3.05
2023-03-11T02:43:46.117Z,4.05
2023-03-11T02:46:52.247Z,3.58
2023-03-11T02:49:57.490Z,2.60
2023-03-11T02:53:01.107Z,3.13
2023-03-11T02:56:05.521Z,2.88
2023-03-11T02:59:11.690Z,3.63
2023-03-11T03:02:15.050Z,3.42
2023-03-11T03:05:18.529Z,3.25
2023-03-11T03:08:22.068Z,3.80
2023-03-11T03:11:25.444Z,2.95
2023-03-11T03:14:31.532Z,3.92
2023-03-11T03:17:35.011Z,2.65
2023-03-11T03:20:38.695Z,3.45
2023-03-11T03:23:42.158Z,4.35
2023-03-11T03:26:46.456Z,2.97
2023-03-11T03:29:51.429Z,3.95
2023-03-11T03:32:55.241Z,3.15
2023-03-11T03:35:59.570Z,3.53
2023-03-11T03:39:09.014Z,3.60
2023-03-11T03:42:14.218Z,3.08
2023-03-11T03:45:19.819Z,3.08
2023-03-11T03:48:24.785Z,3.15
2023-03-11T03:51:28.208Z,4.53
2023-03-11T03:54:38.965Z,2.92
2023-03-11T03:57:42.411Z,3.72
2023-03-11T04:00:50.577Z,3.65
2023-03-11T04:03:54.025Z,3.78
2023-03-11T04:06:57.927Z,3.55
2023-03-11T04:10:01.567Z,3.40
2023-03-11T04:13:07.955Z,3.42
2023-03-11T04:16:16.932Z,3.40
2023-03-11T04:19:20.524Z,3.80
2023-03-11T04:22:24.184Z,3.30
2023-03-11T04:25:28.546Z,4.05
2023-03-11T04:28:32.208Z,3.70
2023-03-11T04:31:37.624Z,3.50
2023-03-11T04:34:42.936Z,3.13
2023-03-11T04:37:47.042Z,3.40
2023-03-11T04:40:50.808Z,3.45
2023-03-11T04:43:54.557Z,3.22
2023-03-11T04:46:59.737Z,2.90
2023-03-11T04:50:03.469Z,2.90
2023-03-11T04:53:07.623Z,2.97
2023-03-11T04:56:11.207Z,2.60
2023-03-11T04:59:15.999Z,2.88
2023-03-11T05:02:22.620Z,2.92
2023-03-11T05:05:31.075Z,3.10
2023-03-11T05:08:34.562Z,2.78
2023-03-11T05:11:37.989Z,2.53
2023-03-11T05:14:41.362Z,2.45
2023-03-11T05:17:46.592Z,3.45
2023-03-11T05:20:50.502Z,2.92
2023-03-11T05:23:57.758Z,3.20
2023-03-11T05:27:02.665Z,2.92
2023-03-11T05:30:07.399Z,2.67
2023-03-11T05:33:14.265Z,2.78
2023-03-11T05:36:18.104Z,3.03
2023-03-11T05:39:22.552Z,2.45
2023-03-11T05:42:26.148Z,3.30
2023-03-11T05:45:31.570Z,2.72
2023-03-11T05:48:38.910Z,3.22
2023-03-11T05:51:42.633Z,3.30
2023-03-11T05:54:46.202Z,3.15
2023-03-11T05:57:52.635Z,3.08
2023-03-11T06:00:56.414Z,2.65
2023-03-11T06:04:01.657Z,3.10
2023-03-11T06:07:05.538Z,3.47
2023-03-11T06:10:13.532Z,3.53
2023-03-11T06:13:17.753Z,2.70
2023-03-11T06:16:27.262Z,3.25
2023-03-11T06:19:36.034Z,3.33
2023-03-11T06:22:40.366Z,3.08
2023-03-11T06:25:44.861Z,2.60
2023-03-11T06:28:48.574Z,3.30
2023-03-11T06:31:52.307Z,3.05
2023-03-11T06:34:57.804Z,3.10
2023-03-11T06:38:01.342Z,3.33
2023-03-11T06:41:05.721Z,3.65
2023-03-11T06:44:11.586Z,3.45
2023-03-11T06:47:16.875Z,3.00
2023-03-11T06:50:23.653Z,3.40
2023-03-11T06:53:28.003Z,3.40
2023-03-11T06:56:31.529Z,2.70
2023-03-11T06:59:40.134Z,4.00
2023-03-11T07:02:44.814Z,3.05
2023-03-11T07:05:53.436Z,2.70
2023-03-11T07:08:57.838Z,3.60
2023-03-11T07:12:01.816Z,2.75
2023-03-11T07:15:11.271Z,3.40
2023-03-11T07:18:15.099Z,3.13
2023-03-11T07:21:21.279Z,3.50
2023-03-11T07:24:24.721Z,3.13
2023-03-11T07:27:29.526Z,2.78
2023-03-11T07:30:34.384Z,3.35
2023-03-11T07:33:38.278Z,3.33
2023-03-11T07:36:43.309Z,3.05
2023-03-11T07:39:46.690Z,3.30
2023-03-11T07:42:50.044Z,3.70
2023-03-11T07:46:03.862Z,3.15
2023-03-11T07:49:07.473Z,2.72
2023-03-11T07:52:12.405Z,3.30
2023-03-11T07:55:16.158Z,3.60
2023-03-11T07:58:19.712Z,2.85
2023-03-11T08:01:24.384Z,3.22
2023-03-11T08:04:27.751Z,3.17
2023-03-11T08:07:34.279Z,3.33
2023-03-11T08:10:38.846Z,3.05
2023-03-11T08:13:42.563Z,2.85
2023-03-11T08:16:45.982Z,2.45
2023-03-11T08:19:50.627Z,3.05
2023-03-11T08:22:58.381Z,3.05
2023-03-11T08:26:04.727Z,2.70
2023-03-11T08:29:08.261Z,3.05
2023-03-11T08:32:11.518Z,3.08
2023-03-11T08:35:14.880Z,2.53
2023-03-11T08:38:20.800Z,2.67
2023-03-11T08:41:24.158Z,2.55
2023-03-11T08:44:27.428Z,2.70
2023-03-11T08:47:30.860Z,2.10
2023-03-11T08:50:41.352Z,1.30
2023-03-11T08:53:52.534Z,2.20
2023-03-11T08:56:55.969Z,2.10
2023-03-11T08:59:59.345Z,2.53
2023-03-11T09:03:02.662Z,2.30
2023-03-11T09:06:07.017Z,2.45
2023-03-11T09:09:12.486Z,1.80
2023-03-11T09:12:15.836Z,1.40
2023-03-11T09:15:19.217Z,1.90
2023-03-11T09:18:22.896Z,2.22
2023-03-11T09:21:26.381Z,2.35
2023-03-11T09:24:31.627Z,3.67
2023-03-11T09:27:34.891Z,2.03
2023-03-11T09:30:38.392Z,2.05
2023-03-11T09:33:42.917Z,3.42
2023-03-11T09:36:46.858Z,2.80
2023-03-11T09:39:51.498Z,2.28
2023-03-11T09:42:58.996Z,2.28
2023-03-11T09:46:07.165Z,1.52
2023-03-11T09:49:14.896Z,2.08
2023-03-11T09:52:20.654Z,1.85
2023-03-11T09:55:40.212Z,1.70
2023-03-11T09:58:45.270Z,1.80
2023-03-11T10:01:50.540Z,2.10
2023-03-11T10:04:57.849Z,1.70
2023-03-11T10:08:04.275Z,1.75
2023-03-11T10:11:14.711Z,1.30
2023-03-11T10:14:22.762Z,1.70
2023-03-11T10:17:36.369Z,1.92
2023-03-11T10:20:44.235Z,1.38
2023-03-11T10:23:56.261Z,1.38
2023-03-11T10:27:03.290Z,1.63
2023-03-11T10:30:11.433Z,1.27
2023-03-11T10:33:20.891Z,1.70
2023-03-11T10:36:27.108Z,1.58
2023-03-11T10:39:30.539Z,1.38
2023-03-11T10:42:36.574Z,1.48
2023-03-11T10:45:41.698Z,1.60
2023-03-11T10:48:45.115Z,1.30
2023-03-11T10:51:49.372Z,1.25
2023-03-11T10:55:02.855Z,1.15
2023-03-11T10:58:09.589Z,1.38
2023-03-11T11:01:16.451Z,1.20
2023-03-11T11:04:27.431Z,1.35
2023-03-11T11:07:32.115Z,1.08
2023-03-11T11:10:36.842Z,1.15
2023-03-11T11:13:41.450Z,1.02
2023-03-11T11:16:44.863Z,1.00
2023-03-11T11:19:50.322Z,1.27
2023-03-11T11:22:54.999Z,1.20
2023-03-11T11:25:59.555Z,1.00
2023-03-11T11:29:15.391Z,1.27
2023-03-11T11:32:20.772Z,1.38
2023-03-11T11:35:25.317Z,1.33
2023-03-11T11:38:29.544Z,1.30
2023-03-11T11:41:34.690Z,0.75
2023-03-11T11:44:39.330Z,0.93
2023-03-11T11:47:45.398Z,1.00
2023-03-11T11:50:52.868Z,0.93
2023-03-11T11:53:58.560Z,1.00
2023-03-11T11:57:02.271Z,1.08
2023-03-11T12:00:16.865Z,1.30
2023-03-11T12:03:35.428Z,0.73
2023-03-11T12:06:42.586Z,1.02
2023-03-11T12:09:51.895Z,1.10
2023-03-11T12:13:06.185Z,1.00
2023-03-11T12:16:15.326Z,0.95
2023-03-11T12:19:21.126Z,1.00
2023-03-11T12:22:39.067Z,1.00
2023-03-11T12:25:44.352Z,0.82
2023-03-11T12:28:50.754Z,1.08
2023-03-11T12:31:55.668Z,0.85
2023-03-11T12:35:04.537Z,1.00
2023-03-11T12:38:17.540Z,0.80
2023-03-11T12:41:31.488Z,0.68
2023-03-11T12:44:34.881Z,0.95
2023-03-11T12:47:39.721Z,0.80
2023-03-11T12:50:44.575Z,0.80
2023-03-11T12:53:48.490Z,0.98
2023-03-11T12:56:54.753Z,0.88
2023-03-11T13:00:07.773Z,0.90
2023-03-11T13:03:18.160Z,0.75
2023-03-11T13:06:27.678Z,0.93
2023-03-11T13:09:32.175Z,0.90
2023-03-11T13:12:41.329Z,0.88
2023-03-11T13:15:44.615Z,0.63
2023-03-11T13:18:51.826Z,0.70
2023-03-11T13:21:57.819Z,2.28
2023-03-11T13:25:01.512Z,1.08
2023-03-11T13:28:20.071Z,1.30
2023-03-11T13:31:31.221Z,0.93
2023-03-11T13:34:40.434Z,0.90
2023-03-11T13:37:51.036Z,0.70
2023-03-11T13:40:54.751Z,0.60
2023-03-11T13:44:01.981Z,0.95
2023-03-11T13:47:07.483Z,1.13
2023-03-11T13:50:16.937Z,0.95
2023-03-11T13:53:23.291Z,1.30
2023-03-11T13:56:28.683Z,1.17
2023-03-11T13:59:33.588Z,0.80
2023-03-11T14:02:37.555Z,1.13
2023-03-11T14:05:46.520Z,1.10
2023-03-11T14:08:54.799Z,1.15
2023-03-11T14:12:07.615Z,1.25
2023-03-11T14:15:15.204Z,1.23
2023-03-11T14:18:36.682Z,1.10
2023-03-11T14:21:45.055Z,1.33
2023-03-11T14:24:49.482Z,1.40
2023-03-11T14:27:55.180Z,1.52
2023-03-11T14:30:59.366Z,1.33
2023-03-11T14:34:06.678Z,0.98
2023-03-11T14:37:25.175Z,1.45
2023-03-11T14:40:30.752Z,0.90
2023-03-11T14:43:36.632Z,1.10
2023-03-11T14:46:41.467Z,1.20
2023-03-11T14:49:50.420Z,1.73
2023-03-11T14:52:57.601Z,1.02
2023-03-11T14:56:01.979Z,1.42
2023-03-11T14:59:12.668Z,0.88
2023-03-11T15:02:32.132Z,0.90
2023-03-11T15:05:37.593Z,1.15
2023-03-11T15:08:47.363Z,1.60
2023-03-11T15:11:51.998Z,1.33
2023-03-11T15:14:55.393Z,0.95
2023-03-11T15:18:00.252Z,1.25
2023-03-11T15:21:08.868Z,1.05
2023-03-11T15:24:21.231Z,0.90
2023-03-11T15:27:29.185Z,0.82
2023-03-11T15:30:32.930Z,0.85
2023-03-11T15:33:36.210Z,1.10
2023-03-11T15:36:40.462Z,0.75
2023-03-11T15:39:50.933Z,0.77
2023-03-11T15:43:09.160Z,1.17
2023-03-11T15:46:12.931Z,1.20
2023-03-11T15:49:16.336Z,1.02
2023-03-11T15:52:20.831Z,1.10
2023-03-11T15:55:26.168Z,1.50
2023-03-11T15:58:29.928Z,0.90
2023-03-11T16:01:34.210Z,1.02
2023-03-11T16:04:37.730Z,1.42
2023-03-11T16:07:59.199Z,0.90
2023-03-11T16:11:05.100Z,0.90
2023-03-11T16:14:08.915Z,0.90
2023-03-11T16:17:14.499Z,0.70
2023-03-11T16:20:18.150Z,0.60
2023-03-11T16:23:22.785Z,0.73
2023-03-11T16:26:27.497Z,0.80
2023-03-11T16:29:30.927Z,0.63
2023-03-11T16:32:34.293Z,0.80
2023-03-11T16:35:38.128Z,0.73
2023-03-11T16:38:45.080Z,0.50
2023-03-11T16:41:49.856Z,0.60
2023-03-11T16:44:53.228Z,1.10
2023-03-11T16:47:56.811Z,0.73
2023-03-11T16:51:00.800Z,1.40
2023-03-11T16:54:04.189Z,1.15
2023-03-11T16:57:09.010Z,1.13
2023-03-11T17:00:13.314Z,1.13
2023-03-11T17:03:21.366Z,0.75
2023-03-11T17:06:25.309Z,1.38
2023-03-11T17:09:28.574Z,1.83
2023-03-11T17:12:33.262Z,1.63
2023-03-11T17:15:38.067Z,1.42
2023-03-11T17:18:41.464Z,1.38
2023-03-11T17:21:44.822Z,1.58
2023-03-11T17:24:48.809Z,2.20
2023-03-11T17:27:53.595Z,1.30
2023-03-11T17:30:56.889Z,1.10
2023-03-11T17:34:00.855Z,1.00
2023-03-11T17:37:04.280Z,1.20
2023-03-11T17:40:22.447Z,1.30
2023-03-11T17:43:51.566Z,1.48
2023-03-11T17:50:27.142Z,1.17
2023-03-11T17:53:30.416Z,1.52
2023-03-11T17:56:33.721Z,1.17
2023-03-11T17:59:38.396Z,2.40
2023-03-11T18:02:41.991Z,1.48
2023-03-11T18:05:55.134Z,1.48
2023-03-11T18:08:58.520Z,1.17
2023-03-11T18:12:02.475Z,2.10
2023-03-11T18:15:14.634Z,1.27
2023-03-11T18:18:17.883Z,1.70
2023-03-11T18:21:22.116Z,1.45
2023-03-11T18:24:25.563Z,1.50
2023-03-11T18:27:29.056Z,1.33
2023-03-11T18:30:33.917Z,1.00
2023-03-11T18:33:37.448Z,1.17
2023-03-11T18:36:42.058Z,1.38
2023-03-11T18:39:45.370Z,1.75
2023-03-11T18:42:48.983Z,1.60
2023-03-11T18:45:53.778Z,1.67
2023-03-11T18:48:58.816Z,1.42
2023-03-11T18:52:02.285Z,1.10
2023-03-11T18:55:09.184Z,1.13
2023-03-11T18:58:12.794Z,1.20
2023-03-11T19:01:19.047Z,1.20
2023-03-11T19:04:22.552Z,1.30
2023-03-11T19:07:26.849Z,1.30
2023-03-11T19:10:30.262Z,1.27
2023-03-11T19:13:46.316Z,1.25
2023-03-11T19:16:52.270Z,1.15
2023-03-11T19:19:55.890Z,1.00
2023-03-11T19:22:59.852Z,0.85
2023-03-11T19:26:03.819Z,1.20
2023-03-11T19:29:07.468Z,1.35
2023-03-11T19:32:12.278Z,1.08
2023-03-11T19:35:16.697Z,0.77
2023-03-11T19:38:20.129Z,1.02
2023-03-11T19:41:23.964Z,1.60
2023-03-11T19:44:27.345Z,1.35
2023-03-11T19:47:32.202Z,1.20
2023-03-11T19:50:35.832Z,1.35
2023-03-11T19:53:40.412Z,1.60
2023-03-11T19:56:43.817Z,1.02
2023-03-11T19:59:47.312Z,0.95
2023-03-11T20:02:52.409Z,1.30
2023-03-11T20:05:57.900Z,0.77
2023-03-11T20:09:01.718Z,0.93
2023-03-11T20:12:05.138Z,0.90
2023-03-11T20:15:09.035Z,0.75
2023-03-11T20:18:13.857Z,0.90
2023-03-11T20:21:17.133Z,1.02
2023-03-11T20:24:20.494Z,1.10
2023-03-11T20:27:24.256Z,1.02
2023-03-11T20:30:27.648Z,0.90
2023-03-11T20:33:32.350Z,0.90
2023-03-11T20:36:35.813Z,0.90
2023-03-11T20:39:39.829Z,0.70
2023-03-11T20:42:46.783Z,0.75
2023-03-11T20:45:50.316Z,0.85
2023-03-11T20:48:55.020Z,1.27
2023-03-11T20:51:58.519Z,0.82
2023-03-11T20:55:01.910Z,1.00
2023-03-11T20:58:07.668Z,0.90
2023-03-11T21:01:15.285Z,1.00
2023-03-11T21:04:21.132Z,0.88
2023-03-11T21:07:24.668Z,0.93
2023-03-11T21:10:28.094Z,0.90
2023-03-11T21:13:33.181Z,1.17
2023-03-11T21:16:38.624Z,1.00
2023-03-11T21:19:43.681Z,0.93
2023-03-11T21:22:47.109Z,0.82
2023-03-11T21:25:50.570Z,0.80
2023-03-11T21:28:53.909Z,0.95
2023-03-11T21:31:57.300Z,0.73
2023-03-11T21:35:03.764Z,0.90
2023-03-11T21:38:07.239Z,0.82
2023-03-11T21:41:11.597Z,1.02
2023-03-11T21:44:15.080Z,1.00
2023-03-11T21:47:18.454Z,0.90
2023-03-11T21:50:23.371Z,0.80
2023-03-11T21:53:27.001Z,1.00
2023-03-11T21:56:30.515Z,1.15
2023-03-11T21:59:33.876Z,0.80
2023-03-11T22:02:37.417Z,1.08
2023-03-11T22:05:42.909Z,0.82
2023-03-11T22:08:46.363Z,1.00
2023-03-11T22:11:49.749Z,1.10
2023-03-11T22:14:53.121Z,1.20
2023-03-11T22:17:56.781Z,1.30
2023-03-11T22:21:01.775Z,1.48
2023-03-11T22:24:05.240Z,1.13
2023-03-11T22:27:08.642Z,1.45
2023-03-11T22:30:12.507Z,1.08
2023-03-11T22:33:15.993Z,1.30
2023-03-11T22:36:20.633Z,1.50
2023-03-11T22:39:23.998Z,1.20
2023-03-11T22:42:27.351Z,1.35
2023-03-11T22:45:30.897Z,1.27
2023-03-11T22:48:34.212Z,1.25
2023-03-11T22:51:38.879Z,1.40
2023-03-11T22:54:42.640Z,1.90
2023-03-11T22:57:46.026Z,1.60
2023-03-11T23:00:49.630Z,1.52
2023-03-11T23:03:53.193Z,1.40
2023-03-11T23:06:57.948Z,1.20
2023-03-11T23:10:01.573Z,1.65
2023-03-11T23:13:05.179Z,1.23
2023-03-11T23:16:09.553Z,1.27
2023-03-11T23:19:13.117Z,1.52
2023-03-11T23:22:17.812Z,1.58
2023-03-11T23:25:21.112Z,1.65
2023-03-11T23:28:24.950Z,1.98
2023-03-11T23:31:28.689Z,1.38
2023-03-11T23:34:32.094Z,1.65
2023-03-11T23:37:36.744Z,1.38
2023-03-11T23:40:41.689Z,1.52
2023-03-11T23:43:45.070Z,1.42
2023-03-11T23:46:48.440Z,1.67
2023-03-11T23:49:51.742Z,2.40
2023-03-11T23:52:56.425Z,1.77
2023-03-11T23:55:59.782Z,2.38
2023-03-11T23:59:03.111Z,2.28
